Terminal Aerodrome Forecast
Issued by NWS Upton, NY

Current Version | Previous Version | Text Only | Print | Product List | Glossary On
Versions: 1 2 3 4 5 6 7 8 9 10 11 12 13 14 15 16 17 18 19 20 21 22 23 24
000
FTUS41 KOKX 040240 AAA
TAFBDR
TAF AMD
KBDR 040240Z 0403/0424 VRB04KT P6SM SCT050 BKN250
     FM041100 05011KT P6SM BKN025
     FM041500 06014G20KT P6SM BKN030
     FM042000 08015G20KT P6SM BKN040=

USA.gov is the U.S. government's official web portal to all federal, state and local government web resources and services.